createdAt,value
2019-06-10T00:00:41.928Z,16.90
2019-06-10T00:03:11.553Z,16.90
2019-06-10T00:05:41.512Z,16.80
2019-06-10T00:08:11.972Z,16.80
2019-06-10T00:10:42.248Z,16.70
2019-06-10T00:13:11.839Z,16.70
2019-06-10T00:15:41.037Z,16.70
2019-06-10T00:18:33.455Z,16.60
2019-06-10T00:20:40.902Z,16.60
2019-06-10T00:23:12.248Z,16.60
2019-06-10T00:25:41.497Z,16.50
2019-06-10T00:28:12.070Z,16.50
2019-06-10T00:30:41.501Z,16.40
2019-06-10T00:33:12.480Z,16.30
2019-06-10T00:35:41.343Z,16.30
2019-06-10T00:38:13.977Z,16.30
2019-06-10T00:40:41.648Z,16.40
2019-06-10T00:43:13.266Z,16.30
2019-06-10T00:45:41.119Z,16.30
2019-06-10T00:48:21.348Z,16.30
2019-06-10T00:50:41.482Z,16.30
2019-06-10T00:53:14.043Z,16.20
2019-06-10T00:55:41.570Z,16.10
2019-06-10T00:58:13.651Z,16.10
2019-06-10T01:00:41.532Z,16.00
2019-06-10T01:03:13.437Z,16.00
2019-06-10T01:05:42.023Z,16.00
2019-06-10T01:08:13.860Z,15.90
2019-06-10T01:10:43.820Z,15.90
2019-06-10T01:13:13.547Z,15.80
2019-06-10T01:15:42.506Z,15.80
2019-06-10T01:18:28.679Z,15.70
2019-06-10T01:20:41.616Z,15.70
2019-06-10T01:23:13.813Z,15.70
2019-06-10T01:25:42.345Z,15.60
2019-06-10T01:28:13.366Z,15.60
2019-06-10T01:30:41.320Z,15.60
2019-06-10T01:33:11.385Z,15.50
2019-06-10T01:35:41.489Z,15.50
2019-06-10T01:38:13.461Z,15.40
2019-06-10T01:40:42.525Z,15.40
2019-06-10T01:43:14.063Z,15.40
2019-06-10T01:45:42.072Z,15.30
2019-06-10T01:48:12.124Z,15.30
2019-06-10T01:50:41.320Z,15.20
2019-06-10T01:53:12.649Z,15.20
2019-06-10T01:55:41.843Z,15.20
2019-06-10T01:58:14.220Z,15.20
2019-06-10T02:00:51.697Z,15.20
2019-06-10T02:03:23.776Z,15.20
2019-06-10T02:05:51.699Z,15.20
2019-06-10T02:08:22.163Z,15.20
2019-06-10T02:10:51.033Z,15.20
2019-06-10T02:13:32.546Z,15.20
2019-06-10T02:16:02.233Z,15.20
2019-06-10T02:18:31.913Z,15.20
2019-06-10T02:21:01.360Z,15.20
2019-06-10T02:23:31.406Z,15.20
2019-06-10T02:26:01.479Z,15.20
2019-06-10T02:28:31.648Z,15.20
2019-06-10T02:31:03.366Z,15.20
2019-06-10T02:33:36.229Z,15.20
2019-06-10T02:36:04.134Z,15.20
2019-06-10T02:38:37.898Z,15.20
2019-06-10T02:41:04.424Z,15.20
2019-06-10T02:43:37.165Z,15.30
2019-06-10T02:46:04.294Z,15.30
2019-06-10T02:48:35.081Z,15.30
2019-06-10T02:51:05.384Z,15.40
2019-06-10T02:53:36.096Z,15.40
2019-06-10T02:56:05.607Z,15.30
2019-06-10T02:58:39.074Z,15.30
2019-06-10T03:01:04.835Z,15.40
2019-06-10T03:03:43.308Z,15.40
2019-06-10T03:06:07.673Z,15.30
2019-06-10T03:08:36.247Z,15.30
2019-06-10T03:11:04.841Z,15.30
2019-06-10T03:13:33.427Z,15.30
2019-06-10T03:16:06.434Z,15.30
2019-06-10T03:18:35.102Z,15.20
2019-06-10T03:21:03.750Z,15.20
2019-06-10T03:23:32.387Z,15.20
2019-06-10T03:26:04.055Z,15.10
2019-06-10T03:28:32.232Z,15.10
2019-06-10T03:31:05.076Z,15.10
2019-06-10T03:33:40.381Z,15.00
2019-06-10T03:36:03.195Z,15.00
2019-06-10T03:38:32.585Z,15.00
2019-06-10T03:41:03.318Z,15.00
2019-06-10T03:43:32.896Z,15.00
2019-06-10T03:46:03.186Z,15.00
2019-06-10T03:48:32.897Z,15.00
2019-06-10T03:51:03.399Z,15.00
2019-06-10T03:53:33.755Z,15.00
2019-06-10T03:56:02.241Z,15.10
2019-06-10T03:58:32.671Z,15.00
2019-06-10T04:01:03.205Z,15.00
2019-06-10T04:03:33.863Z,15.00
2019-06-10T04:06:02.556Z,15.10
2019-06-10T04:08:32.911Z,15.10
2019-06-10T04:11:02.994Z,15.10
2019-06-10T04:13:33.732Z,15.10
2019-06-10T04:16:02.640Z,15.10
2019-06-10T04:18:32.862Z,15.10
2019-06-10T04:21:02.428Z,15.10
2019-06-10T04:23:33.391Z,15.10
2019-06-10T04:26:02.382Z,15.20
2019-06-10T04:28:33.644Z,15.20
2019-06-10T04:31:02.595Z,15.20
2019-06-10T04:33:32.958Z,15.20
2019-06-10T04:36:02.959Z,15.20
2019-06-10T04:38:32.766Z,15.30
2019-06-10T04:41:03.348Z,15.30
2019-06-10T04:43:32.619Z,15.40
2019-06-10T04:46:02.565Z,15.40
2019-06-10T04:48:32.684Z,15.40
2019-06-10T04:51:02.693Z,15.40
2019-06-10T04:53:32.990Z,15.40
2019-06-10T04:56:02.931Z,15.40
2019-06-10T04:58:33.326Z,15.40
2019-06-10T05:01:03.176Z,15.40
2019-06-10T05:03:32.903Z,15.40
2019-06-10T05:06:03.423Z,15.50
2019-06-10T05:08:33.782Z,15.50
2019-06-10T05:11:03.664Z,15.60
2019-06-10T05:13:33.691Z,15.60
2019-06-10T05:16:03.699Z,15.60
2019-06-10T05:18:33.206Z,15.70
2019-06-10T05:21:02.751Z,15.70
2019-06-10T05:23:32.969Z,15.70
2019-06-10T05:26:02.807Z,15.80
2019-06-10T05:28:33.886Z,15.80
2019-06-10T05:31:02.789Z,15.80
2019-06-10T05:33:33.549Z,15.90
2019-06-10T05:36:02.574Z,15.90
2019-06-10T05:38:35.180Z,15.90
2019-06-10T05:41:02.984Z,16.00
2019-06-10T05:43:34.251Z,16.00
2019-06-10T05:46:03.028Z,16.10
2019-06-10T05:48:33.707Z,16.10
2019-06-10T05:51:03.800Z,16.10
2019-06-10T05:53:35.003Z,16.20
2019-06-10T05:56:02.546Z,16.40
2019-06-10T05:58:34.161Z,16.60
2019-06-10T06:01:02.776Z,16.80
2019-06-10T06:03:36.241Z,16.90
2019-06-10T06:06:03.254Z,17.10
2019-06-10T06:08:34.896Z,17.20
2019-06-10T06:11:03.212Z,17.30
2019-06-10T06:13:34.183Z,17.50
2019-06-10T06:16:03.699Z,17.70
2019-06-10T06:18:34.561Z,18.30
2019-06-10T06:21:20.095Z,18.70
2019-06-10T06:23:33.903Z,18.80
2019-06-10T06:26:03.973Z,19.10
2019-06-10T06:28:34.679Z,19.40
2019-06-10T06:31:03.443Z,20.50
2019-06-10T06:33:35.959Z,20.20
2019-06-10T06:36:03.556Z,20.70
2019-06-10T06:38:35.143Z,20.90
2019-06-10T06:41:03.210Z,21.90
2019-06-10T06:43:36.367Z,21.50
2019-06-10T06:46:02.591Z,20.80
2019-06-10T06:48:35.632Z,20.20
2019-06-10T06:51:05.499Z,19.80
2019-06-10T06:53:42.164Z,19.70
2019-06-10T06:56:03.706Z,19.80
2019-06-10T06:58:34.934Z,19.90
2019-06-10T07:01:10.246Z,20.10
2019-06-10T07:03:35.250Z,20.30
2019-06-10T07:06:03.445Z,20.40
2019-06-10T07:08:36.114Z,20.10
2019-06-10T07:11:04.177Z,19.80
2019-06-10T07:13:37.347Z,19.60
2019-06-10T07:16:04.389Z,19.40
2019-06-10T07:18:38.792Z,19.30
2019-06-10T07:21:03.310Z,19.20
2019-06-10T07:23:35.362Z,19.20
2019-06-10T07:26:02.741Z,19.30
2019-06-10T07:28:34.036Z,19.40
2019-06-10T07:31:03.213Z,19.60
2019-06-10T07:33:34.765Z,19.70
2019-06-10T07:36:03.222Z,19.80
2019-06-10T07:38:33.873Z,20.10
2019-06-10T07:41:02.717Z,20.50
2019-06-10T07:43:34.034Z,20.70
2019-06-10T07:46:03.365Z,21.10
2019-06-10T07:48:34.489Z,21.60
2019-06-10T07:51:03.072Z,22.00
2019-06-10T07:53:33.136Z,22.20
2019-06-10T07:56:03.223Z,22.80
2019-06-10T07:58:35.136Z,22.50
2019-06-10T08:01:03.213Z,22.10
2019-06-10T08:03:33.401Z,21.80
2019-06-10T08:06:03.503Z,21.40
2019-06-10T08:08:32.909Z,21.20
2019-06-10T08:11:03.348Z,21.30
2019-06-10T08:13:32.470Z,22.00
2019-06-10T08:16:02.869Z,23.20
2019-06-10T08:18:38.153Z,24.40
2019-06-10T08:21:03.158Z,25.50
2019-06-10T08:23:32.817Z,26.50
2019-06-10T08:26:03.495Z,27.90
2019-06-10T08:28:33.240Z,29.10
2019-06-10T08:31:03.670Z,29.60
2019-06-10T08:33:33.050Z,28.60
2019-06-10T08:36:04.045Z,27.80
2019-06-10T08:38:33.263Z,27.90
2019-06-10T08:41:03.087Z,27.90
2019-06-10T08:43:33.058Z,27.80
2019-06-10T08:46:02.832Z,27.90
2019-06-10T08:48:33.010Z,28.60
2019-06-10T08:51:03.905Z,28.50
2019-06-10T08:53:37.375Z,28.30
2019-06-10T08:56:07.195Z,27.50
2019-06-10T08:58:38.459Z,27.10
2019-06-10T09:01:07.254Z,26.50
2019-06-10T09:03:35.905Z,26.00
2019-06-10T09:06:06.847Z,25.80
2019-06-10T09:08:35.398Z,25.30
2019-06-10T09:11:04.058Z,25.10
2019-06-10T09:13:33.597Z,25.10
2019-06-10T09:16:14.713Z,25.20
2019-06-10T09:18:33.725Z,25.20
2019-06-10T09:21:02.959Z,25.30
2019-06-10T09:23:33.086Z,25.30
2019-06-10T09:26:03.646Z,24.90
2019-06-10T09:28:33.014Z,24.70
2019-06-10T09:31:03.973Z,24.30
2019-06-10T09:33:33.149Z,23.90
2019-06-10T09:36:03.298Z,24.00
2019-06-10T09:38:33.417Z,24.30
2019-06-10T09:41:05.957Z,24.70
2019-06-10T09:43:33.475Z,24.70
2019-06-10T09:46:03.597Z,25.00
2019-06-10T09:48:33.619Z,24.90
2019-06-10T09:51:02.739Z,24.90
2019-06-10T09:53:41.384Z,25.00
2019-06-10T09:56:04.175Z,25.20
2019-06-10T09:58:32.991Z,25.00
2019-06-10T10:01:03.247Z,25.20
2019-06-10T10:03:32.956Z,25.10
2019-06-10T10:06:11.633Z,24.90
2019-06-10T10:08:33.918Z,25.10
2019-06-10T10:11:03.141Z,25.00
2019-06-10T10:13:35.237Z,25.10
2019-06-10T10:16:02.668Z,25.00
2019-06-10T10:18:32.966Z,25.00
2019-06-10T10:21:03.837Z,24.80
2019-06-10T10:23:49.632Z,24.70
2019-06-10T10:26:03.423Z,24.90
2019-06-10T10:28:33.390Z,25.20
2019-06-10T10:31:03.871Z,25.40
2019-06-10T10:33:33.264Z,25.60
2019-06-10T10:36:02.885Z,25.50
2019-06-10T10:38:34.604Z,25.40
2019-06-10T10:41:04.572Z,25.30
2019-06-10T10:43:36.985Z,25.40
2019-06-10T10:46:05.600Z,25.40
2019-06-10T10:48:33.580Z,25.30
2019-06-10T10:51:03.609Z,25.10
2019-06-10T10:53:32.968Z,24.80
2019-06-10T10:56:02.409Z,24.80
2019-06-10T10:58:32.989Z,24.60
2019-06-10T11:01:04.050Z,24.80
2019-06-10T11:03:33.556Z,25.00
2019-06-10T11:06:02.100Z,24.70
2019-06-10T11:08:33.261Z,24.70
2019-06-10T11:11:05.197Z,24.80
2019-06-10T11:13:36.333Z,24.80
2019-06-10T11:16:05.908Z,24.80
2019-06-10T11:18:34.662Z,24.80
2019-06-10T11:21:05.097Z,25.00
2019-06-10T11:23:34.462Z,25.20
2019-06-10T11:26:03.334Z,25.20
2019-06-10T11:28:32.326Z,25.00
2019-06-10T11:31:03.245Z,24.90
2019-06-10T11:33:33.062Z,24.90
2019-06-10T11:36:02.917Z,24.90
2019-06-10T11:38:32.946Z,25.10
2019-06-10T11:41:01.835Z,25.10
2019-06-10T11:43:32.850Z,25.30
2019-06-10T11:46:06.763Z,25.40
2019-06-10T11:48:32.840Z,25.40
2019-06-10T11:51:04.282Z,25.40
2019-06-10T11:53:31.348Z,25.20
2019-06-10T11:56:02.224Z,25.10
2019-06-10T11:58:30.138Z,25.30
2019-06-10T12:01:00.494Z,25.40
2019-06-10T12:03:29.029Z,25.40
2019-06-10T12:06:00.748Z,25.40
2019-06-10T12:08:27.834Z,25.50
2019-06-10T12:11:00.088Z,25.50
2019-06-10T12:13:26.711Z,25.40
2019-06-10T12:16:34.947Z,25.40
2019-06-10T12:18:25.514Z,25.30
2019-06-10T12:20:59.010Z,25.40
2019-06-10T12:23:24.314Z,25.60
2019-06-10T12:25:55.935Z,25.60
2019-06-10T12:28:23.116Z,25.60
2019-06-10T12:30:57.419Z,25.50
2019-06-10T12:33:25.228Z,25.40
2019-06-10T12:35:57.613Z,25.30
2019-06-10T12:38:22.950Z,25.40
2019-06-10T12:40:52.496Z,25.40
2019-06-10T12:43:23.173Z,25.40
2019-06-10T12:45:52.998Z,25.50
2019-06-10T12:48:22.411Z,25.50
2019-06-10T12:50:53.882Z,25.40
2019-06-10T12:53:22.835Z,25.50
2019-06-10T12:55:53.666Z,25.50
2019-06-10T12:58:22.611Z,25.50
2019-06-10T13:00:53.196Z,25.50
2019-06-10T13:03:23.729Z,25.50
2019-06-10T13:05:53.323Z,25.50
2019-06-10T13:08:23.874Z,25.50
2019-06-10T13:10:53.221Z,25.40
2019-06-10T13:13:22.758Z,25.40
2019-06-10T13:15:53.291Z,25.40
2019-06-10T13:18:23.738Z,25.50
2019-06-10T13:20:53.874Z,25.60
2019-06-10T13:23:30.456Z,25.50
2019-06-10T13:25:57.919Z,25.50
2019-06-10T13:28:23.106Z,25.60
2019-06-10T13:30:54.618Z,25.50
2019-06-10T13:33:22.958Z,25.20
2019-06-10T13:35:53.739Z,25.10
2019-06-10T13:38:22.797Z,25.00
2019-06-10T13:40:53.210Z,24.90
2019-06-10T13:43:23.252Z,24.80
2019-06-10T13:45:53.299Z,24.90
2019-06-10T13:48:23.387Z,24.80
2019-06-10T13:50:52.833Z,24.80
2019-06-10T13:53:21.501Z,24.70
2019-06-10T13:55:56.933Z,24.70
2019-06-10T13:58:22.849Z,24.60
2019-06-10T14:00:53.296Z,24.50
2019-06-10T14:03:22.718Z,24.60
2019-06-10T14:05:57.630Z,24.50
2019-06-10T14:08:23.350Z,24.50
2019-06-10T14:10:53.651Z,24.50
2019-06-10T14:13:23.635Z,24.40
2019-06-10T14:15:53.246Z,24.40
2019-06-10T14:18:23.140Z,24.40
2019-06-10T14:20:53.184Z,24.40
2019-06-10T14:23:22.415Z,24.40
2019-06-10T14:25:52.525Z,24.40
2019-06-10T14:28:38.721Z,24.40
2019-06-10T14:30:53.750Z,24.40
2019-06-10T14:33:23.383Z,24.50
2019-06-10T14:35:53.439Z,24.60
2019-06-10T14:38:22.422Z,24.70
2019-06-10T14:40:52.471Z,24.90
2019-06-10T14:43:23.200Z,25.00
2019-06-10T14:45:53.415Z,25.00
2019-06-10T14:48:23.394Z,25.10
2019-06-10T14:50:52.225Z,25.20
2019-06-10T14:53:22.919Z,25.10
2019-06-10T14:55:53.256Z,25.10
2019-06-10T14:58:23.090Z,25.10
2019-06-10T15:00:54.452Z,25.00
2019-06-10T15:03:21.691Z,24.90
2019-06-10T15:05:52.604Z,24.80
2019-06-10T15:08:22.812Z,24.90
2019-06-10T15:10:52.771Z,24.90
2019-06-10T15:13:23.516Z,25.00
2019-06-10T15:15:53.190Z,25.00
2019-06-10T15:18:23.766Z,25.00
2019-06-10T15:20:53.481Z,25.00
2019-06-10T15:23:23.476Z,25.00
2019-06-10T15:25:55.898Z,25.00
2019-06-10T15:28:23.545Z,25.00
2019-06-10T15:30:52.737Z,25.00
2019-06-10T15:33:23.557Z,25.00
2019-06-10T15:35:53.452Z,25.10
2019-06-10T15:38:23.297Z,25.10
2019-06-10T15:40:53.258Z,25.00
2019-06-10T15:43:23.326Z,24.80
2019-06-10T15:45:53.045Z,24.70
2019-06-10T15:48:25.088Z,24.60
2019-06-10T15:50:52.167Z,24.50
2019-06-10T15:53:25.305Z,24.50
2019-06-10T15:56:16.892Z,24.50
2019-06-10T15:58:24.180Z,24.50
2019-06-10T16:00:53.503Z,24.60
2019-06-10T16:03:25.382Z,24.60
2019-06-10T16:05:52.872Z,24.50
2019-06-10T16:08:22.585Z,24.50
2019-06-10T16:10:52.538Z,24.40
2019-06-10T16:13:24.006Z,24.30
2019-06-10T16:15:53.343Z,24.20
2019-06-10T16:18:25.929Z,24.20
2019-06-10T16:20:52.828Z,24.20
2019-06-10T16:23:24.493Z,24.20
2019-06-10T16:25:53.522Z,24.10
2019-06-10T16:28:23.463Z,24.10
2019-06-10T16:30:53.590Z,24.00
2019-06-10T16:33:27.308Z,23.90
2019-06-10T16:35:53.041Z,23.90
2019-06-10T16:38:23.878Z,23.70
2019-06-10T16:40:53.600Z,23.70
2019-06-10T16:43:24.121Z,23.50
2019-06-10T16:45:53.255Z,23.40
2019-06-10T16:48:22.216Z,23.40
2019-06-10T16:50:54.382Z,23.30
2019-06-10T16:53:27.989Z,23.20
2019-06-10T16:55:53.101Z,23.20
2019-06-10T16:58:25.342Z,23.20
2019-06-10T17:00:52.073Z,23.20
2019-06-10T17:03:42.454Z,23.20
2019-06-10T17:06:15.499Z,23.10
2019-06-10T17:08:44.104Z,23.10
2019-06-10T17:11:15.872Z,22.90
2019-06-10T17:13:54.374Z,22.80
2019-06-10T17:16:29.800Z,22.60
2019-06-10T17:19:02.463Z,22.40
2019-06-10T17:21:36.486Z,22.20
2019-06-10T17:24:15.819Z,22.00
2019-06-10T17:26:44.320Z,21.70
2019-06-10T17:29:12.893Z,21.50
2019-06-10T17:31:42.607Z,21.20
2019-06-10T17:34:13.115Z,20.90
2019-06-10T17:36:42.703Z,20.70
2019-06-10T17:39:12.516Z,20.60
2019-06-10T17:41:42.719Z,20.50
2019-06-10T17:44:13.071Z,20.50
2019-06-10T17:46:42.600Z,20.40
2019-06-10T17:49:13.051Z,20.40
2019-06-10T17:51:43.280Z,20.30
2019-06-10T17:54:12.987Z,20.20
2019-06-10T17:56:51.512Z,20.10
2019-06-10T17:59:22.506Z,20.00
2019-06-10T18:01:52.403Z,19.90
2019-06-10T18:04:22.587Z,19.90
2019-06-10T18:06:52.897Z,19.80
2019-06-10T18:09:24.825Z,19.70
2019-06-10T18:11:54.169Z,19.70
2019-06-10T18:14:23.296Z,19.60
2019-06-10T18:16:53.051Z,19.50
2019-06-10T18:19:22.269Z,19.50
2019-06-10T18:21:52.260Z,19.40
2019-06-10T18:24:23.941Z,19.30
2019-06-10T18:26:52.898Z,19.30
2019-06-10T18:29:22.943Z,19.20
2019-06-10T18:31:53.056Z,19.10
2019-06-10T18:34:22.657Z,19.00
2019-06-10T18:36:52.130Z,18.90
2019-06-10T18:39:22.736Z,18.90
2019-06-10T18:41:52.952Z,18.80
2019-06-10T18:44:24.123Z,18.70
2019-06-10T18:46:54.257Z,18.70
2019-06-10T18:49:22.926Z,18.70
2019-06-10T18:51:53.470Z,18.70
2019-06-10T18:54:25.692Z,18.60
2019-06-10T18:56:54.377Z,18.60
2019-06-10T18:59:23.010Z,18.60
2019-06-10T19:01:52.660Z,18.50
2019-06-10T19:04:22.433Z,18.50
2019-06-10T19:06:52.710Z,18.40
2019-06-10T19:09:21.829Z,18.40
2019-06-10T19:11:53.409Z,18.30
2019-06-10T19:14:21.680Z,18.30
2019-06-10T19:16:52.427Z,18.30
2019-06-10T19:19:22.962Z,18.30
2019-06-10T19:22:02.752Z,18.30
2019-06-10T19:24:23.463Z,18.30
2019-06-10T19:26:52.728Z,18.30
2019-06-10T19:29:32.715Z,18.20
2019-06-10T19:31:52.652Z,18.20
2019-06-10T19:34:22.456Z,18.10
2019-06-10T19:36:52.197Z,18.10
2019-06-10T19:39:22.248Z,18.00
2019-06-10T19:41:52.996Z,17.90
2019-06-10T19:44:23.283Z,17.80
2019-06-10T19:46:52.242Z,17.80
2019-06-10T19:49:20.914Z,17.70
2019-06-10T19:51:49.404Z,17.70
2019-06-10T19:54:18.012Z,17.60
2019-06-10T19:56:46.718Z,17.50
2019-06-10T19:59:23.215Z,17.50
2019-06-10T20:01:54.062Z,17.40
2019-06-10T20:04:22.730Z,17.30
2019-06-10T20:06:53.664Z,17.30
2019-06-10T20:09:22.798Z,17.30
2019-06-10T20:11:52.264Z,17.20
2019-06-10T20:14:20.862Z,17.20
2019-06-10T20:16:49.454Z,17.20
2019-06-10T20:19:18.090Z,17.20
2019-06-10T20:21:47.141Z,17.10
2019-06-10T20:24:17.156Z,17.10
2019-06-10T20:26:47.648Z,17.10
2019-06-10T20:29:15.990Z,17.10
2019-06-10T20:31:47.065Z,17.10
2019-06-10T20:34:17.652Z,17.10
2019-06-10T20:36:46.924Z,17.10
2019-06-10T20:39:15.723Z,17.00
2019-06-10T20:41:49.440Z,17.00
2019-06-10T20:44:14.522Z,16.90
2019-06-10T20:46:43.565Z,17.00
2019-06-10T20:49:13.629Z,16.90
2019-06-10T20:51:57.777Z,16.90
2019-06-10T20:54:12.901Z,16.90
2019-06-10T20:56:45.538Z,16.90
2019-06-10T20:59:13.121Z,16.90
2019-06-10T21:01:44.480Z,16.80
2019-06-10T21:04:13.198Z,16.80
2019-06-10T21:06:47.416Z,16.80
2019-06-10T21:09:17.016Z,16.80
2019-06-10T21:11:48.205Z,16.80
2019-06-10T21:14:16.113Z,16.90
2019-06-10T21:16:44.692Z,16.80
2019-06-10T21:19:13.298Z,16.90
2019-06-10T21:21:45.094Z,16.80
2019-06-10T21:24:12.637Z,16.90
2019-06-10T21:26:43.923Z,16.90
2019-06-10T21:29:12.869Z,16.90
2019-06-10T21:31:44.103Z,16.90
2019-06-10T21:34:12.562Z,16.90
2019-06-10T21:36:41.288Z,16.90
2019-06-10T21:39:11.266Z,16.90
2019-06-10T21:41:42.229Z,16.90
2019-06-10T21:44:10.005Z,16.80
2019-06-10T21:46:38.932Z,16.80
2019-06-10T21:49:12.718Z,16.80
2019-06-10T21:51:43.648Z,16.90
2019-06-10T21:54:12.274Z,16.90
2019-06-10T21:56:43.112Z,16.80
2019-06-10T21:59:12.704Z,16.80
2019-06-10T22:01:44.237Z,16.80
2019-06-10T22:04:13.373Z,16.80
2019-06-10T22:06:42.282Z,16.80
2019-06-10T22:09:12.511Z,16.80
2019-06-10T22:11:42.264Z,16.80
2019-06-10T22:14:12.072Z,16.80
2019-06-10T22:16:42.184Z,16.80
2019-06-10T22:19:12.836Z,16.80
2019-06-10T22:21:42.963Z,16.80
2019-06-10T22:24:12.593Z,16.70
2019-06-10T22:26:42.529Z,16.80
2019-06-10T22:29:12.657Z,16.80
2019-06-10T22:31:42.883Z,16.80
2019-06-10T22:34:12.609Z,16.80
2019-06-10T22:36:42.362Z,16.80
2019-06-10T22:39:12.496Z,16.80
2019-06-10T22:41:42.618Z,16.90
2019-06-10T22:44:12.683Z,16.80
2019-06-10T22:46:42.510Z,16.80
2019-06-10T22:49:13.484Z,16.80
2019-06-10T22:51:43.047Z,16.80
2019-06-10T22:54:11.590Z,16.80
2019-06-10T22:56:42.278Z,16.70
2019-06-10T22:59:13.057Z,16.80
2019-06-10T23:01:42.367Z,16.80
2019-06-10T23:04:13.272Z,16.80
2019-06-10T23:06:41.288Z,16.80
2019-06-10T23:09:09.857Z,16.80
2019-06-10T23:11:38.382Z,16.80
2019-06-10T23:14:06.885Z,16.80
2019-06-10T23:16:35.482Z,16.80
2019-06-10T23:19:04.113Z,16.80
2019-06-10T23:21:32.714Z,16.80
2019-06-10T23:24:03.144Z,16.80
2019-06-10T23:26:33.189Z,16.80
2019-06-10T23:29:03.291Z,16.80
2019-06-10T23:31:33.687Z,16.70
2019-06-10T23:34:02.317Z,16.70
2019-06-10T23:36:32.712Z,16.70
2019-06-10T23:39:03.776Z,16.60
2019-06-10T23:41:32.872Z,16.50
2019-06-10T23:44:04.112Z,16.50
2019-06-10T23:46:32.046Z,16.50
2019-06-10T23:49:03.103Z,16.50
2019-06-10T23:51:33.108Z,16.60
2019-06-10T23:54:04.619Z,16.50
2019-06-10T23:56:32.626Z,16.60
2019-06-10T23:59:04.363Z,16.60
